sensor_id;sensor_type;location;lat;lon;timestamp;P1;P2;P0
76043;PMS7003;64740;34.694;33.088;2022-12-11T00:04:59;28.2;24;16.5
76043;PMS7003;64740;34.694;33.088;2022-12-11T00:09:37;26;23.5;16.4
76043;PMS7003;64740;34.694;33.088;2022-12-11T00:14:39;27.8;24;16.6
76043;PMS7003;64740;34.694;33.088;2022-12-11T00:19:39;25.8;22.7;15.6
76043;PMS7003;64740;34.694;33.088;2022-12-11T00:25:01;26.5;23.2;16.6
76043;PMS7003;64740;34.694;33.088;2022-12-11T00:29:51;26.6;22.2;15.9
76043;PMS7003;64740;34.694;33.088;2022-12-11T00:34:21;27.5;23.3;16.2
76043;PMS7003;64740;34.694;33.088;2022-12-11T00:39:47;26.7;22.9;15.4
76043;PMS7003;64740;34.694;33.088;2022-12-11T00:44:51;26.2;22.4;15.9
76043;PMS7003;64740;34.694;33.088;2022-12-11T00:50:01;26.9;22.7;16
76043;PMS7003;64740;34.694;33.088;2022-12-11T00:54:21;28.4;23.7;16
76043;PMS7003;64740;34.694;33.088;2022-12-11T01:00:01;27.8;23.8;16.4
76043;PMS7003;64740;34.694;33.088;2022-12-11T01:04:21;26.1;22.5;15.4
76043;PMS7003;64740;34.694;33.088;2022-12-11T01:09:29;26.3;22.2;15.1
76043;PMS7003;64740;34.694;33.088;2022-12-11T01:14:21;25.5;22.3;15.5
76043;PMS7003;64740;34.694;33.088;2022-12-11T01:19:29;25.5;22;15.6
76043;PMS7003;64740;34.694;33.088;2022-12-11T01:25:03;24.2;21.7;14.7
76043;PMS7003;64740;34.694;33.088;2022-12-11T01:29:53;25.6;22.7;15.8
76043;PMS7003;64740;34.694;33.088;2022-12-11T01:34:21;23.5;21.1;14.5
76043;PMS7003;64740;34.694;33.088;2022-12-11T01:39:51;25.4;22.8;15.5
76043;PMS7003;64740;34.694;33.088;2022-12-11T01:45:22;25;21.6;15.3
76043;PMS7003;64740;34.694;33.088;2022-12-11T01:49:49;21.7;19.5;13
76043;PMS7003;64740;34.694;33.088;2022-12-11T01:54:31;24.5;21.4;15.1
76043;PMS7003;64740;34.694;33.088;2022-12-11T02:00:03;24.5;21.6;15.1
76043;PMS7003;64740;34.694;33.088;2022-12-11T02:04:31;23.9;20.6;14.7
76043;PMS7003;64740;34.694;33.088;2022-12-11T02:09:22;21.5;18.7;12.4
76043;PMS7003;64740;34.694;33.088;2022-12-11T02:14:33;24;20.8;14.4
76043;PMS7003;64740;34.694;33.088;2022-12-11T02:19:44;26;20.9;14.6
76043;PMS7003;64740;34.694;33.088;2022-12-11T02:25:04;22.9;19.6;13.3
76043;PMS7003;64740;34.694;33.088;2022-12-11T02:29:54;22.6;19.1;12.5
76043;PMS7003;64740;34.694;33.088;2022-12-11T02:34:32;21.2;18.8;13.8
76043;PMS7003;64740;34.694;33.088;2022-12-11T02:39:51;21.5;18.9;13.4
76043;PMS7003;64740;34.694;33.088;2022-12-11T02:44:53;24.2;19.6;14
76043;PMS7003;64740;34.694;33.088;2022-12-11T02:49:42;21.5;18.9;13
76043;PMS7003;64740;34.694;33.088;2022-12-11T02:54:33;22.5;20.1;14
76043;PMS7003;64740;34.694;33.088;2022-12-11T03:00:01;22.3;18.8;12.8
76043;PMS7003;64740;34.694;33.088;2022-12-11T03:04:21;21.6;19.4;13.6
76043;PMS7003;64740;34.694;33.088;2022-12-11T03:09:29;21.5;18.1;13
76043;PMS7003;64740;34.694;33.088;2022-12-11T03:14:21;20.4;17.3;12.7
76043;PMS7003;64740;34.694;33.088;2022-12-11T03:19:23;20.4;17.5;12.5
76043;PMS7003;64740;34.694;33.088;2022-12-11T03:25:05;19;16.4;11.6
76043;PMS7003;64740;34.694;33.088;2022-12-11T03:29:54;21.9;17.9;12.7
76043;PMS7003;64740;34.694;33.088;2022-12-11T03:34:32;17.7;14.9;10.3
76043;PMS7003;64740;34.694;33.088;2022-12-11T03:39:57;20.3;17.3;12.6
76043;PMS7003;64740;34.694;33.088;2022-12-11T03:44:55;19.9;16.8;12.5
76043;PMS7003;64740;34.694;33.088;2022-12-11T03:49:41;22.1;17.1;12.1
76043;PMS7003;64740;34.694;33.088;2022-12-11T03:54:21;18.7;16;11.9
76043;PMS7003;64740;34.694;33.088;2022-12-11T04:00:01;17.8;15.9;11.6
76043;PMS7003;64740;34.694;33.088;2022-12-11T04:04:43;20.7;16.9;12.1
76043;PMS7003;64740;34.694;33.088;2022-12-11T04:09:39;20.4;16.8;12.1
76043;PMS7003;64740;34.694;33.088;2022-12-11T04:14:31;18.9;16.9;12.2
76043;PMS7003;64740;34.694;33.088;2022-12-11T04:19:41;20.4;16.7;12.1
76043;PMS7003;64740;34.694;33.088;2022-12-11T04:25:02;22.1;18.2;12.5
76043;PMS7003;64740;34.694;33.088;2022-12-11T04:29:53;20.1;17.6;12.2
76043;PMS7003;64740;34.694;33.088;2022-12-11T04:34:51;18.9;16.7;12
76043;PMS7003;64740;34.694;33.088;2022-12-11T04:39:51;18.4;15.8;11.4
76043;PMS7003;64740;34.694;33.088;2022-12-11T04:44:55;18.7;15.9;11.7
76043;PMS7003;64740;34.694;33.088;2022-12-11T04:49:41;18.4;15.7;11.6
76043;PMS7003;64740;34.694;33.088;2022-12-11T04:54:21;18.2;15.9;11.8
76043;PMS7003;64740;34.694;33.088;2022-12-11T05:00:04;18.4;16.3;11.7
76043;PMS7003;64740;34.694;33.088;2022-12-11T05:04:41;18.4;15.7;11.2
76043;PMS7003;64740;34.694;33.088;2022-12-11T05:09:39;18.1;15.6;11.6
76043;PMS7003;64740;34.694;33.088;2022-12-11T05:14:21;20.7;16.9;12.2
76043;PMS7003;64740;34.694;33.088;2022-12-11T05:19:41;18.2;15.3;11.6
76043;PMS7003;64740;34.694;33.088;2022-12-11T05:25:01;19.4;17;11.6
76043;PMS7003;64740;34.694;33.088;2022-12-11T05:29:53;20.3;17;12.1
76043;PMS7003;64740;34.694;33.088;2022-12-11T05:34:21;19.6;16.1;11.4
76043;PMS7003;64740;34.694;33.088;2022-12-11T05:39:51;17.6;15.3;11.4
76043;PMS7003;64740;34.694;33.088;2022-12-11T05:44:43;18.4;15.7;11.2
76043;PMS7003;64740;34.694;33.088;2022-12-11T05:49:51;18.4;16.4;11.8
76043;PMS7003;64740;34.694;33.088;2022-12-11T05:54:31;18.8;17;12.2
76043;PMS7003;64740;34.694;33.088;2022-12-11T06:00:03;19.6;16.9;11.8
76043;PMS7003;64740;34.694;33.088;2022-12-11T06:04:43;17.9;15.5;11.4
76043;PMS7003;64740;34.694;33.088;2022-12-11T06:09:39;19;16.4;11.9
76043;PMS7003;64740;34.694;33.088;2022-12-11T06:14:31;19.7;16.5;11.9
76043;PMS7003;64740;34.694;33.088;2022-12-11T06:19:41;20.2;16.6;11.8
76043;PMS7003;64740;34.694;33.088;2022-12-11T06:25:03;17.3;15;10.5
76043;PMS7003;64740;34.694;33.088;2022-12-11T06:29:51;19.5;15.8;11.5
76043;PMS7003;64740;34.694;33.088;2022-12-11T06:34:21;19.1;16;12.5
76043;PMS7003;64740;34.694;33.088;2022-12-11T06:39:51;17.6;15.6;11.4
76043;PMS7003;64740;34.694;33.088;2022-12-11T06:44:55;17.7;15.2;11.1
76043;PMS7003;64740;34.694;33.088;2022-12-11T06:50:03;17.6;14.6;10.5
76043;PMS7003;64740;34.694;33.088;2022-12-11T06:54:31;16.1;13.6;9.1
76043;PMS7003;64740;34.694;33.088;2022-12-11T07:00:03;19.1;16.2;11.7
76043;PMS7003;64740;34.694;33.088;2022-12-11T07:04:43;18.2;15.4;11.6
76043;PMS7003;64740;34.694;33.088;2022-12-11T07:09:39;18.4;15.8;11.3
76043;PMS7003;64740;34.694;33.088;2022-12-11T07:14:31;15.6;13.9;9.7
76043;PMS7003;64740;34.694;33.088;2022-12-11T07:19:41;17.8;15.8;11.2
76043;PMS7003;64740;34.694;33.088;2022-12-11T07:25:01;19.8;15.7;11.3
76043;PMS7003;64740;34.694;33.088;2022-12-11T07:29:51;19.5;16.1;11.9
76043;PMS7003;64740;34.694;33.088;2022-12-11T07:34:31;19.3;16.8;12.3
76043;PMS7003;64740;34.694;33.088;2022-12-11T07:39:47;19.1;16.5;12
76043;PMS7003;64740;34.694;33.088;2022-12-11T07:44:53;19.2;15.8;11.2
76043;PMS7003;64740;34.694;33.088;2022-12-11T07:49:51;22.2;19.2;13.7
76043;PMS7003;64740;34.694;33.088;2022-12-11T07:54:21;21.7;18.5;13.5
76043;PMS7003;64740;34.694;33.088;2022-12-11T08:00:02;22;19.3;14.5
76043;PMS7003;64740;34.694;33.088;2022-12-11T08:04:41;26.8;23.4;16.1
76043;PMS7003;64740;34.694;33.088;2022-12-11T08:09:39;31.5;27;18.4
76043;PMS7003;64740;34.694;33.088;2022-12-11T08:14:21;29.1;24.1;17.1
76043;PMS7003;64740;34.694;33.088;2022-12-11T08:19:39;30.7;25.9;18.3
76043;PMS7003;64740;34.694;33.088;2022-12-11T08:25:01;28.9;25.4;17.8
76043;PMS7003;64740;34.694;33.088;2022-12-11T08:29:51;27.8;24.9;17.6
76043;PMS7003;64740;34.694;33.088;2022-12-11T08:34:31;27.7;23.9;17
76043;PMS7003;64740;34.694;33.088;2022-12-11T08:39:51;29.4;25.5;17.8
76043;PMS7003;64740;34.694;33.088;2022-12-11T08:44:53;25.9;21.5;15.4
76043;PMS7003;64740;34.694;33.088;2022-12-11T08:49:39;29.1;25.4;18.5
76043;PMS7003;64740;34.694;33.088;2022-12-11T08:54:51;27.7;23.9;17.5
76043;PMS7003;64740;34.694;33.088;2022-12-11T09:00:01;29.8;25.6;17.8
76043;PMS7003;64740;34.694;33.088;2022-12-11T09:04:53;31.1;26.5;18.3
76043;PMS7003;64740;34.694;33.088;2022-12-11T09:09:39;28.3;25.3;17.8
76043;PMS7003;64740;34.694;33.088;2022-12-11T09:14:41;31.8;27.6;18.6
76043;PMS7003;64740;34.694;33.088;2022-12-11T09:19:21;30.6;26.6;18.9
76043;PMS7003;64740;34.694;33.088;2022-12-11T09:25:01;27.9;25.2;18.5
76043;PMS7003;64740;34.694;33.088;2022-12-11T09:29:51;31.3;27.3;18.9
76043;PMS7003;64740;34.694;33.088;2022-12-11T09:34:31;31;27.3;19.2
76043;PMS7003;64740;34.694;33.088;2022-12-11T09:39:51;32;28.2;19.4
76043;PMS7003;64740;34.694;33.088;2022-12-11T09:44:54;30.9;26.7;18.4
76043;PMS7003;64740;34.694;33.088;2022-12-11T09:49:52;28;24.1;17.2
76043;PMS7003;64740;34.694;33.088;2022-12-11T09:54:31;28.9;25.3;17.4
76043;PMS7003;64740;34.694;33.088;2022-12-11T10:00:04;30.5;25.2;17.7
76043;PMS7003;64740;34.694;33.088;2022-12-11T10:04:35;28.4;24.1;17.4
76043;PMS7003;64740;34.694;33.088;2022-12-11T10:09:42;26.3;22.9;16.3
76043;PMS7003;64740;34.694;33.088;2022-12-11T10:14:23;28.2;24.2;16.5
76043;PMS7003;64740;34.694;33.088;2022-12-11T10:19:40;30.9;26.4;18.2
76043;PMS7003;64740;34.694;33.088;2022-12-11T10:25:00;27.9;25.3;17.6
76043;PMS7003;64740;34.694;33.088;2022-12-11T10:29:50;29.4;26;17.8
76043;PMS7003;64740;34.694;33.088;2022-12-11T10:34:31;31.1;27;18.4
76043;PMS7003;64740;34.694;33.088;2022-12-11T10:39:51;29.8;24.1;15.9
76043;PMS7003;64740;34.694;33.088;2022-12-11T10:44:54;30.1;25.6;18.2
76043;PMS7003;64740;34.694;33.088;2022-12-11T10:49:54;29.9;26.3;18.3
76043;PMS7003;64740;34.694;33.088;2022-12-11T10:54:34;29.5;25.1;18
76043;PMS7003;64740;34.694;33.088;2022-12-11T11:00:02;28.9;25.7;18.2
76043;PMS7003;64740;34.694;33.088;2022-12-11T11:04:41;29.3;26;18
76043;PMS7003;64740;34.694;33.088;2022-12-11T11:09:37;29;25.3;17.2
76043;PMS7003;64740;34.694;33.088;2022-12-11T11:14:21;28.8;25.4;18.2
76043;PMS7003;64740;34.694;33.088;2022-12-11T11:19:43;28.7;25.2;17.5
76043;PMS7003;64740;34.694;33.088;2022-12-11T11:24:59;28.9;25.1;17.7
76043;PMS7003;64740;34.694;33.088;2022-12-11T11:29:39;28.2;24.5;16.9
76043;PMS7003;64740;34.694;33.088;2022-12-11T11:34:29;27.3;24.3;17.1
76043;PMS7003;64740;34.694;33.088;2022-12-11T11:39:50;26.8;23.6;15.9
76043;PMS7003;64740;34.694;33.088;2022-12-11T11:44:57;25.5;22;15.3
76043;PMS7003;64740;34.694;33.088;2022-12-11T11:49:52;28.4;24.8;17.7
76043;PMS7003;64740;34.694;33.088;2022-12-11T11:54:32;29;25.4;17.9
76043;PMS7003;64740;34.694;33.088;2022-12-11T12:00:00;28.3;25.5;17.6
76043;PMS7003;64740;34.694;33.088;2022-12-11T12:04:32;30;25.8;18.2
76043;PMS7003;64740;34.694;33.088;2022-12-11T12:09:40;28.2;25.5;18.1
76043;PMS7003;64740;34.694;33.088;2022-12-11T12:14:32;28.7;25.3;17.6
76043;PMS7003;64740;34.694;33.088;2022-12-11T12:19:45;29.8;25.2;18.3
76043;PMS7003;64740;34.694;33.088;2022-12-11T12:25:04;31.4;27.2;18.2
76043;PMS7003;64740;34.694;33.088;2022-12-11T12:29:53;30.5;26.2;18.5
76043;PMS7003;64740;34.694;33.088;2022-12-11T12:34:56;31.7;27.3;18.4
76043;PMS7003;64740;34.694;33.088;2022-12-11T12:39:53;28.9;25.2;17.2
76043;PMS7003;64740;34.694;33.088;2022-12-11T12:44:57;31.8;27.4;18.7
76043;PMS7003;64740;34.694;33.088;2022-12-11T12:49:52;32.3;28;19.4
76043;PMS7003;64740;34.694;33.088;2022-12-11T12:54:35;32;27.3;18.5
76043;PMS7003;64740;34.694;33.088;2022-12-11T13:00:04;32.1;27.6;19.3
76043;PMS7003;64740;34.694;33.088;2022-12-11T13:04:35;31.6;27.1;19.1
76043;PMS7003;64740;34.694;33.088;2022-12-11T13:09:41;30.1;26.6;19.3
76043;PMS7003;64740;34.694;33.088;2022-12-11T13:14:55;31.1;27.2;19.1
76043;PMS7003;64740;34.694;33.088;2022-12-11T13:19:33;33.5;28.8;19.4
76043;PMS7003;64740;34.694;33.088;2022-12-11T13:25:15;31.3;27.4;19.1
76043;PMS7003;64740;34.694;33.088;2022-12-11T13:29:30;33.8;29.1;19.7
76043;PMS7003;64740;34.694;33.088;2022-12-11T13:34:42;31.1;27.5;19.5
76043;PMS7003;64740;34.694;33.088;2022-12-11T13:39:34;31.2;26.3;18.3
76043;PMS7003;64740;34.694;33.088;2022-12-11T13:44:45;30.5;26.5;18.4
76043;PMS7003;64740;34.694;33.088;2022-12-11T13:50:12;30.6;26.6;18.8
76043;PMS7003;64740;34.694;33.088;2022-12-11T13:54:52;32.4;27.9;18.8
76043;PMS7003;64740;34.694;33.088;2022-12-11T13:59:34;32.4;27;18.8
76043;PMS7003;64740;34.694;33.088;2022-12-11T14:04:54;31.4;26.9;19
76043;PMS7003;64740;34.694;33.088;2022-12-11T14:09:58;30.3;26.4;17.7
76043;PMS7003;64740;34.694;33.088;2022-12-11T14:14:44;31.5;27.4;18.3
76043;PMS7003;64740;34.694;33.088;2022-12-11T14:19:33;31;26.7;18.8
76043;PMS7003;64740;34.694;33.088;2022-12-11T14:25:15;32.9;27.2;19.1
76043;PMS7003;64740;34.694;33.088;2022-12-11T14:29:48;31.4;27.2;18.3
76043;PMS7003;64740;34.694;33.088;2022-12-11T14:34:42;29.8;25.8;18.6
76043;PMS7003;64740;34.694;33.088;2022-12-11T14:40:08;33.7;27.8;19.3
76043;PMS7003;64740;34.694;33.088;2022-12-11T14:44:22;33;26.5;19.1
76043;PMS7003;64740;34.694;33.088;2022-12-11T14:50:08;33.3;29.2;20
76043;PMS7003;64740;34.694;33.088;2022-12-11T14:54:59;34.7;30;20.2
76043;PMS7003;64740;34.694;33.088;2022-12-11T14:59:29;36.1;30.6;21
76043;PMS7003;64740;34.694;33.088;2022-12-11T15:04:58;36.3;31.3;20.7
76043;PMS7003;64740;34.694;33.088;2022-12-11T15:09:59;37.1;30.8;20.6
76043;PMS7003;64740;34.694;33.088;2022-12-11T15:14:54;37.4;31.7;21.6
76043;PMS7003;64740;34.694;33.088;2022-12-11T15:19:22;34.2;29.7;20.5
76043;PMS7003;64740;34.694;33.088;2022-12-11T15:25:15;36.2;31;20.9
76043;PMS7003;64740;34.694;33.088;2022-12-11T15:29:45;38.2;30.5;21
76043;PMS7003;64740;34.694;33.088;2022-12-11T15:34:42;39.1;31.7;20.8
76043;PMS7003;64740;34.694;33.088;2022-12-11T15:39:22;36.7;31.1;21.1
76043;PMS7003;64740;34.694;33.088;2022-12-11T15:44:41;37.7;30.5;20.2
76043;PMS7003;64740;34.694;33.088;2022-12-11T15:50:11;38.1;31.3;21.2
76043;PMS7003;64740;34.694;33.088;2022-12-11T15:54:57;36.2;29.5;20.9
76043;PMS7003;64740;34.694;33.088;2022-12-11T15:59:33;41.1;33;21.7
76043;PMS7003;64740;34.694;33.088;2022-12-11T16:04:52;40.1;32.1;21.5
76043;PMS7003;64740;34.694;33.088;2022-12-11T16:09:59;39.4;31.7;21.6
76043;PMS7003;64740;34.694;33.088;2022-12-11T16:14:51;40.9;32.7;22.5
76043;PMS7003;64740;34.694;33.088;2022-12-11T16:19:34;41.7;33.3;22
76043;PMS7003;64740;34.694;33.088;2022-12-11T16:25:08;43;33.8;23.3
76043;PMS7003;64740;34.694;33.088;2022-12-11T16:29:47;40.3;32.9;22.5
76043;PMS7003;64740;34.694;33.088;2022-12-11T16:34:41;41.9;33.3;22.2
76043;PMS7003;64740;34.694;33.088;2022-12-11T16:39:21;42.5;33.3;22.5
76043;PMS7003;64740;34.694;33.088;2022-12-11T16:44:41;42.1;34.7;23
76043;PMS7003;64740;34.694;33.088;2022-12-11T16:50:08;40.1;31.9;21.8
76043;PMS7003;64740;34.694;33.088;2022-12-11T16:54:55;39.8;32.4;22.1
76043;PMS7003;64740;34.694;33.088;2022-12-11T16:59:30;40.6;32.8;22.3
76043;PMS7003;64740;34.694;33.088;2022-12-11T17:04:51;40.7;33.6;22.1
76043;PMS7003;64740;34.694;33.088;2022-12-11T17:09:59;40.1;32.7;21.7
76043;PMS7003;64740;34.694;33.088;2022-12-11T17:14:54;41.8;33.2;22.6
76043;PMS7003;64740;34.694;33.088;2022-12-11T17:19:34;38;32.5;22.3
76043;PMS7003;64740;34.694;33.088;2022-12-11T17:49:59;38;32.5;22.3
76043;PMS7003;64740;34.694;33.088;2022-12-11T17:55:08;39.9;32.6;22.1
76043;PMS7003;64740;34.694;33.088;2022-12-11T17:59:58;39.7;32.1;21.9
76043;PMS7003;64740;34.694;33.088;2022-12-11T18:05:08;33.3;27.6;17.5
76043;PMS7003;64740;34.694;33.088;2022-12-11T18:09:59;41.2;32.7;22.1
76043;PMS7003;64740;34.694;33.088;2022-12-11T18:14:42;40.6;32.7;22.1
76043;PMS7003;64740;34.694;33.088;2022-12-11T18:19:22;38.2;31.7;21.6
76043;PMS7003;64740;34.694;33.088;2022-12-11T18:25:09;39.2;31.6;22.1
76043;PMS7003;64740;34.694;33.088;2022-12-11T18:29:46;37.9;31.4;21.2
76043;PMS7003;64740;34.694;33.088;2022-12-11T18:35:08;36;30.6;21.1
76043;PMS7003;64740;34.694;33.088;2022-12-11T18:39:34;36.8;30.8;21.1
76043;PMS7003;64740;34.694;33.088;2022-12-11T18:44:34;36;30.5;20.8
76043;PMS7003;64740;34.694;33.088;2022-12-11T18:49:56;34.5;29.6;20.4
76043;PMS7003;64740;34.694;33.088;2022-12-11T18:55:06;36.3;30.3;20.9
76043;PMS7003;64740;34.694;33.088;2022-12-11T18:59:35;36.5;30.5;20.8
76043;PMS7003;64740;34.694;33.088;2022-12-11T19:05:06;37.5;31.3;20.8
76043;PMS7003;64740;34.694;33.088;2022-12-11T19:10:00;38.6;31.7;21.4
76043;PMS7003;64740;34.694;33.088;2022-12-11T19:14:42;36.4;29.2;20.7
76043;PMS7003;64740;34.694;33.088;2022-12-11T19:19:34;40.1;32.7;22.3
76043;PMS7003;64740;34.694;33.088;2022-12-11T19:25:06;36.7;31.2;21.1
76043;PMS7003;64740;34.694;33.088;2022-12-11T19:29:46;39.2;32.7;22.4
76043;PMS7003;64740;34.694;33.088;2022-12-11T19:35:06;38;31.7;21.4
76043;PMS7003;64740;34.694;33.088;2022-12-11T19:39:34;40.4;32.3;21.4
76043;PMS7003;64740;34.694;33.088;2022-12-11T19:44:42;38;31.3;21.1
76043;PMS7003;64740;34.694;33.088;2022-12-11T19:49:58;35.6;30.3;20.2
76043;PMS7003;64740;34.694;33.088;2022-12-11T19:55:06;35;29.7;20.4
76043;PMS7003;64740;34.694;33.088;2022-12-11T19:59:34;38.3;31.7;21.5
76043;PMS7003;64740;34.694;33.088;2022-12-11T20:05:06;36.4;30.8;21.4
76043;PMS7003;64740;34.694;33.088;2022-12-11T20:09:46;37.7;30.8;20
76043;PMS7003;64740;34.694;33.088;2022-12-11T20:14:23;38;30.6;19.5
76043;PMS7003;64740;34.694;33.088;2022-12-11T20:19:54;39.5;32.1;21.9
76043;PMS7003;64740;34.694;33.088;2022-12-11T20:25:08;39.3;32.1;21.9
76043;PMS7003;64740;34.694;33.088;2022-12-11T20:29:58;39.9;32.9;21.8
76043;PMS7003;64740;34.694;33.088;2022-12-11T20:35:06;35.1;30.9;21.2
76043;PMS7003;64740;34.694;33.088;2022-12-11T20:39:22;35;30.2;20.4
76043;PMS7003;64740;34.694;33.088;2022-12-11T20:44:22;36.8;30.7;21
76043;PMS7003;64740;34.694;33.088;2022-12-11T20:49:58;37.5;31.3;21.2
76043;PMS7003;64740;34.694;33.088;2022-12-11T20:55:08;37.4;31.9;20.8
76043;PMS7003;64740;34.694;33.088;2022-12-11T20:59:44;37.1;31.6;21.8
76043;PMS7003;64740;34.694;33.088;2022-12-11T21:05:08;38.8;32.3;22
76043;PMS7003;64740;34.694;33.088;2022-12-11T21:09:58;40.7;33.5;22.4
76043;PMS7003;64740;34.694;33.088;2022-12-11T21:14:42;42.2;34;22.9
76043;PMS7003;64740;34.694;33.088;2022-12-11T21:19:22;39.8;32.6;22.4
76043;PMS7003;64740;34.694;33.088;2022-12-11T21:25:08;40.2;33.6;22.5
76043;PMS7003;64740;34.694;33.088;2022-12-11T21:29:58;43;34.7;23.4
76043;PMS7003;64740;34.694;33.088;2022-12-11T21:35:08;39.7;33;22.4
76043;PMS7003;64740;34.694;33.088;2022-12-11T21:39:34;38.8;32;21.5
76043;PMS7003;64740;34.694;33.088;2022-12-11T21:44:44;37.9;31.3;21.1
76043;PMS7003;64740;34.694;33.088;2022-12-11T21:49:58;39.3;32.3;21.9
76043;PMS7003;64740;34.694;33.088;2022-12-11T21:55:04;36.5;30.9;20.7
76043;PMS7003;64740;34.694;33.088;2022-12-11T21:59:22;32.9;28;19
76043;PMS7003;64740;34.694;33.088;2022-12-11T22:05:04;31.2;26.8;18.3
76043;PMS7003;64740;34.694;33.088;2022-12-11T22:09:56;30;26.2;17.7
76043;PMS7003;64740;34.694;33.088;2022-12-11T22:14:22;30.1;25.8;18.2
76043;PMS7003;64740;34.694;33.088;2022-12-11T22:19:22;30.4;25.9;18.2
76043;PMS7003;64740;34.694;33.088;2022-12-11T22:25:04;27.7;24.1;17
76043;PMS7003;64740;34.694;33.088;2022-12-11T22:29:42;28.1;23.8;16.6
76043;PMS7003;64740;34.694;33.088;2022-12-11T22:35:02;28.1;24.2;16.3
76043;PMS7003;64740;34.694;33.088;2022-12-11T22:39:30;30.2;25.9;17.9
76043;PMS7003;64740;34.694;33.088;2022-12-11T22:44:40;27.2;24.1;16.7
76043;PMS7003;64740;34.694;33.088;2022-12-11T22:49:54;28.5;24.6;17.3
76043;PMS7003;64740;34.694;33.088;2022-12-11T22:55:04;25.5;23.3;16.3
76043;PMS7003;64740;34.694;33.088;2022-12-11T22:59:30;27.6;23.3;16.7
76043;PMS7003;64740;34.694;33.088;2022-12-11T23:05:04;24.9;22.8;15.8
76043;PMS7003;64740;34.694;33.088;2022-12-11T23:10:04;25.1;21.6;15.4
76043;PMS7003;64740;34.694;33.088;2022-12-11T23:14:38;22;20.1;14.5
76043;PMS7003;64740;34.694;33.088;2022-12-11T23:19:30;22.9;20.6;14
76043;PMS7003;64740;34.694;33.088;2022-12-11T23:25:02;22.4;19.8;13.9
76043;PMS7003;64740;34.694;33.088;2022-12-11T23:29:22;19.6;17.8;11.9
76043;PMS7003;64740;34.694;33.088;2022-12-11T23:35:04;21.6;17.9;13
76043;PMS7003;64740;34.694;33.088;2022-12-11T23:39:30;19.3;16.9;12.4
76043;PMS7003;64740;34.694;33.088;2022-12-11T23:44:38;18;16.1;11.6
76043;PMS7003;64740;34.694;33.088;2022-12-11T23:49:52;18.1;15.8;11.8
76043;PMS7003;64740;34.694;33.088;2022-12-11T23:55:02;18;15;10.8
76043;PMS7003;64740;34.694;33.088;2022-12-11T23:59:22;16.4;13.2;9.7
